Terminal Aerodrome Forecast
Issued by NWS

Home | Current Version | Previous Version | Text Only | Print | Product List | Glossary On
Versions: 1 2 3 4 5 6 7 8 9 10 11 12 13 14 15 16 17 18 19 20 21 22 23 24 25
733
FTPA31 PHFO 252331
TAFMDY
TAF
PMDY 252331Z 2600/2624 32010KT P6SM VCSH SCT015 OVC035
     FM260600 36010KT P6SM VCSH SCT025 BKN035
     FM261200 03010KT P6SM VCSH SCT025 BKN040
     FM262000 03014KT P6SM VCSH SCT025 BKN040
      AMD LTD TO WIND AND VIS=

USA.gov is the U.S. government's official web portal to all federal, state and local government web resources and services.